createdAt,value
2022-10-06T00:09:09.390Z,12.90
2022-10-06T00:19:11.156Z,12.80
2022-10-06T00:29:18.360Z,12.80
2022-10-06T00:39:20.230Z,12.60
2022-10-06T00:49:32.336Z,12.50
2022-10-06T00:59:36.671Z,12.40
2022-10-06T01:09:39.396Z,12.40
2022-10-06T01:19:52.586Z,12.20
2022-10-06T01:29:56.159Z,12.20
2022-10-06T01:39:58.074Z,12.10
2022-10-06T01:50:00.339Z,12.10
2022-10-06T02:00:04.488Z,12.00
2022-10-06T02:10:14.600Z,12.10
2022-10-06T02:20:17.210Z,12.00
2022-10-06T02:30:20.405Z,11.90
2022-10-06T02:40:22.475Z,11.80
2022-10-06T02:50:25.604Z,11.80
2022-10-06T03:00:27.585Z,11.70
2022-10-06T03:10:29.627Z,11.80
2022-10-06T03:20:31.616Z,11.80
2022-10-06T03:30:33.663Z,11.60
2022-10-06T03:40:35.598Z,11.60
2022-10-06T03:50:37.922Z,11.50
2022-10-06T04:00:39.853Z,11.40
2022-10-06T04:10:41.737Z,11.40
2022-10-06T04:20:43.681Z,11.50
2022-10-06T04:30:56.270Z,11.60
2022-10-06T04:41:14.596Z,11.60
2022-10-06T04:51:17.869Z,11.90
2022-10-06T05:01:26.800Z,12.00
2022-10-06T05:11:29.881Z,12.00
2022-10-06T05:21:32.952Z,12.00
2022-10-06T05:31:36.725Z,12.20
2022-10-06T05:41:39.598Z,12.50
2022-10-06T05:51:44.256Z,13.10
2022-10-06T06:01:51.347Z,14.10
2022-10-06T06:12:01.909Z,14.20
2022-10-06T06:22:32.957Z,15.60
2022-10-06T06:32:40.287Z,15.80
2022-10-06T06:42:43.273Z,15.50
2022-10-06T06:52:57.051Z,16.40
2022-10-06T07:02:59.531Z,17.40
2022-10-06T07:13:05.752Z,17.50
2022-10-06T07:23:21.817Z,17.80
2022-10-06T07:33:23.897Z,17.90
2022-10-06T07:43:27.720Z,18.60
2022-10-06T07:53:30.728Z,19.00
2022-10-06T08:03:41.688Z,18.50
2022-10-06T08:13:46.739Z,18.60
2022-10-06T08:23:50.767Z,19.50
2022-10-06T08:33:59.117Z,19.90
2022-10-06T08:44:13.674Z,19.90
2022-10-06T08:54:41.780Z,20.90
2022-10-06T09:04:43.889Z,20.80
2022-10-06T09:26:22.877Z,21.10
2022-10-06T09:36:57.682Z,21.20
2022-10-06T09:47:20.312Z,21.20
2022-10-06T09:57:29.319Z,21.20
2022-10-06T10:07:31.458Z,21.40
2022-10-06T10:17:48.710Z,21.70
2022-10-06T10:28:15.874Z,21.60
2022-10-06T10:38:23.183Z,21.70
2022-10-06T10:48:32.520Z,21.60
2022-10-06T10:58:36.993Z,21.70
2022-10-06T11:20:40.117Z,21.20
2022-10-06T11:31:09.737Z,21.40
2022-10-06T11:41:47.718Z,20.50
2022-10-06T12:59:46.612Z,21.30
2022-10-06T13:09:51.281Z,20.50
2022-10-06T13:19:53.297Z,20.20
2022-10-06T13:30:25.771Z,20.00
2022-10-06T13:40:44.197Z,20.00
2022-10-06T13:50:48.779Z,19.50
2022-10-06T14:01:00.105Z,19.30
2022-10-06T14:11:08.433Z,19.30
2022-10-06T14:21:39.959Z,19.30
2022-10-06T14:31:49.097Z,19.20
2022-10-06T14:41:51.045Z,18.90
2022-10-06T14:51:54.265Z,18.40
2022-10-06T15:01:56.173Z,17.90
2022-10-06T15:11:59.158Z,17.60
2022-10-06T15:22:01.196Z,17.30
2022-10-06T15:32:05.159Z,17.10
2022-10-06T15:42:07.787Z,17.00
2022-10-06T15:52:12.226Z,16.70
2022-10-06T16:02:15.905Z,16.30
2022-10-06T16:12:25.786Z,16.20
2022-10-06T16:22:27.927Z,16.10
2022-10-06T16:32:30.068Z,16.10
2022-10-06T16:42:31.942Z,16.00
2022-10-06T16:52:33.947Z,15.70
2022-10-06T17:02:35.943Z,15.70
2022-10-06T17:12:38.357Z,15.50
2022-10-06T17:22:40.730Z,15.40
2022-10-06T17:32:43.276Z,15.20
2022-10-06T17:42:45.443Z,15.00
2022-10-06T17:53:04.189Z,14.80
2022-10-06T18:03:06.106Z,14.50
2022-10-06T18:13:07.958Z,14.20
2022-10-06T18:23:09.834Z,14.00
2022-10-06T18:43:34.459Z,13.70
2022-10-06T18:53:37.031Z,13.60
2022-10-06T19:04:01.686Z,13.40
2022-10-06T19:14:15.344Z,13.20
2022-10-06T19:24:19.836Z,12.60
2022-10-06T19:34:25.629Z,12.30
2022-10-06T19:55:02.645Z,11.70
2022-10-06T20:16:34.658Z,11.30
2022-10-06T20:26:39.871Z,11.20
2022-10-06T20:36:55.634Z,10.90
2022-10-06T20:47:32.185Z,10.70
2022-10-06T20:58:06.712Z,10.60
2022-10-06T21:08:14.147Z,10.50
2022-10-06T21:18:35.305Z,10.10
2022-10-06T21:28:38.807Z,10.10
2022-10-06T21:38:42.379Z,10.10
2022-10-06T22:00:09.679Z,9.80
2022-10-06T22:10:15.949Z,9.70
2022-10-06T22:20:18.074Z,9.40
2022-10-06T22:30:20.265Z,9.20
2022-10-06T22:40:23.312Z,9.10
2022-10-06T22:50:27.110Z,9.10
2022-10-06T23:00:29.154Z,9.10
2022-10-06T23:10:32.645Z,9.00
2022-10-06T23:20:34.840Z,8.70
2022-10-06T23:30:38.501Z,8.80
2022-10-06T23:40:41.324Z,8.50
2022-10-06T23:50:43.586Z,8.40
